createdAt,value
2023-01-02T00:01:44.108Z,22.65
2023-01-02T00:04:14.270Z,22.63
2023-01-02T00:06:44.285Z,22.64
2023-01-02T00:09:11.051Z,22.60
2023-01-02T00:11:37.882Z,22.62
2023-01-02T00:14:04.590Z,22.60
2023-01-02T00:16:34.033Z,22.55
2023-01-02T00:19:04.498Z,22.58
2023-01-02T00:21:31.334Z,22.55
2023-01-02T00:24:00.861Z,22.58
2023-01-02T00:26:29.672Z,22.54
2023-01-02T00:28:56.307Z,22.50
2023-01-02T00:31:23.023Z,22.50
2023-01-02T00:33:49.957Z,22.50
2023-01-02T00:36:19.267Z,22.46
2023-01-02T00:38:45.906Z,22.47
2023-01-02T00:41:15.360Z,22.47
2023-01-02T00:43:42.197Z,22.46
2023-01-02T00:46:12.448Z,22.43
2023-01-02T00:48:40.339Z,22.43
2023-01-02T00:51:07.454Z,22.42
2023-01-02T00:53:36.814Z,22.44
2023-01-02T00:56:09.511Z,22.43
2023-01-02T00:58:36.274Z,22.41
2023-01-02T01:01:03.215Z,22.40
2023-01-02T01:03:33.550Z,22.37
2023-01-02T01:06:06.362Z,22.38
2023-01-02T01:08:35.080Z,22.36
2023-01-02T01:11:08.450Z,22.35
2023-01-02T01:13:36.435Z,22.34
2023-01-02T01:16:08.031Z,22.33
2023-01-02T01:18:38.825Z,22.33
2023-01-02T01:21:14.245Z,22.30
2023-01-02T01:23:41.633Z,22.30
2023-01-02T01:26:11.170Z,22.32
2023-01-02T01:28:41.246Z,22.32
2023-01-02T01:31:15.506Z,22.28
2023-01-02T01:33:48.493Z,22.27
2023-01-02T01:36:18.597Z,22.26
2023-01-02T01:38:45.805Z,22.30
2023-01-02T01:41:17.167Z,22.26
2023-01-02T01:43:47.813Z,22.23
2023-01-02T01:46:31.860Z,22.21
2023-01-02T01:49:16.801Z,22.21
2023-01-02T01:51:53.179Z,22.21
2023-01-02T01:54:26.651Z,22.18
2023-01-02T01:57:02.892Z,22.16
2023-01-02T01:59:35.643Z,22.16
2023-01-02T02:02:06.676Z,22.15
2023-01-02T02:04:37.814Z,22.15
2023-01-02T02:07:04.755Z,22.14
2023-01-02T02:09:59.727Z,22.13
2023-01-02T02:12:29.870Z,22.14
2023-01-02T02:14:56.465Z,22.12
2023-01-02T02:17:54.123Z,22.10
2023-01-02T02:20:31.426Z,22.10
2023-01-02T02:23:29.084Z,22.10
2023-01-02T02:26:12.433Z,22.08
2023-01-02T02:29:11.068Z,22.08
2023-01-02T02:31:57.676Z,22.05
2023-01-02T02:34:36.362Z,22.04
2023-01-02T02:37:15.043Z,22.03
2023-01-02T02:40:16.396Z,22.04
2023-01-02T02:43:01.907Z,22.05
2023-01-02T02:45:55.018Z,22.03
2023-01-02T02:48:53.106Z,22.02
2023-01-02T02:51:30.685Z,22.04
2023-01-02T02:54:10.836Z,22.06
2023-01-02T02:56:42.001Z,22.01
2023-01-02T02:59:09.519Z,22.01
2023-01-02T03:01:39.479Z,21.97
2023-01-02T03:04:16.898Z,21.99
2023-01-02T03:06:58.434Z,21.94
2023-01-02T03:10:07.233Z,21.95
2023-01-02T03:13:15.570Z,21.96
2023-01-02T03:16:00.219Z,21.96
2023-01-02T03:18:46.867Z,21.91
2023-01-02T03:21:29.486Z,21.92
2023-01-02T03:24:02.077Z,21.92
2023-01-02T03:26:40.681Z,21.92
2023-01-02T03:29:13.430Z,21.92
2023-01-02T03:31:44.987Z,21.88
2023-01-02T03:34:19.379Z,21.90
2023-01-02T03:36:54.235Z,21.88
2023-01-02T03:39:26.343Z,21.85
2023-01-02T03:42:32.350Z,21.84
2023-01-02T03:45:08.002Z,21.85
2023-01-02T03:47:47.284Z,21.83
2023-01-02T03:50:52.291Z,21.83
2023-01-02T03:53:20.562Z,21.82
2023-01-02T03:56:07.278Z,21.82
2023-01-02T03:58:46.931Z,21.78
2023-01-02T04:01:25.784Z,21.78
2023-01-02T04:03:58.183Z,21.77
2023-01-02T04:06:32.703Z,21.77
2023-01-02T04:09:10.820Z,21.78
2023-01-02T04:11:45.644Z,21.75
2023-01-02T04:14:22.371Z,21.75
2023-01-02T04:16:50.955Z,21.76
2023-01-02T04:19:31.574Z,21.75
2023-01-02T04:22:03.026Z,21.72
2023-01-02T04:24:35.171Z,21.73
2023-01-02T04:27:20.681Z,21.74
2023-01-02T04:29:50.181Z,21.72
2023-01-02T04:32:42.193Z,21.72
2023-01-02T04:35:20.976Z,21.70
2023-01-02T04:37:48.366Z,21.68
2023-01-02T04:40:44.763Z,21.67
2023-01-02T04:43:19.383Z,21.68
2023-01-02T04:45:50.145Z,21.67
2023-01-02T04:48:20.704Z,21.64
2023-01-02T04:50:50.939Z,21.67
2023-01-02T04:53:17.662Z,21.67
2023-01-02T04:55:55.334Z,21.67
2023-01-02T04:58:22.300Z,21.66
2023-01-02T05:00:55.199Z,21.65
2023-01-02T05:03:21.892Z,21.60
2023-01-02T05:06:02.107Z,21.60
2023-01-02T05:08:37.504Z,21.59
2023-01-02T05:11:08.072Z,21.59
2023-01-02T05:13:34.872Z,21.57
2023-01-02T05:16:01.639Z,21.58
2023-01-02T05:18:29.427Z,21.59
2023-01-02T05:21:02.897Z,21.58
2023-01-02T05:23:29.943Z,21.58
2023-01-02T05:25:59.559Z,21.56
2023-01-02T05:28:26.255Z,21.54
2023-01-02T05:30:53.031Z,21.56
2023-01-02T05:33:19.749Z,21.55
2023-01-02T05:35:46.524Z,21.55
2023-01-02T05:38:16.083Z,21.56
2023-01-02T05:40:42.850Z,21.55
2023-01-02T05:43:09.588Z,21.56
2023-01-02T05:45:42.192Z,21.54
2023-01-02T05:48:08.898Z,21.55
2023-01-02T05:50:35.620Z,21.58
2023-01-02T05:53:02.258Z,21.59
2023-01-02T05:55:29.384Z,21.57
2023-01-02T05:57:56.113Z,21.54
2023-01-02T06:00:22.835Z,21.53
2023-01-02T06:02:55.570Z,21.52
2023-01-02T06:05:25.101Z,21.53
2023-01-02T06:07:51.738Z,21.54
2023-01-02T06:10:18.438Z,21.55
2023-01-02T06:12:48.627Z,21.55
2023-01-02T06:15:15.407Z,21.52
2023-01-02T06:17:42.068Z,21.53
2023-01-02T06:20:12.188Z,21.55
2023-01-02T06:22:41.678Z,21.56
2023-01-02T06:25:08.591Z,21.58
2023-01-02T06:27:35.389Z,21.58
2023-01-02T06:30:04.740Z,21.58
2023-01-02T06:32:31.442Z,21.61
2023-01-02T06:34:58.351Z,21.62
2023-01-02T06:37:24.964Z,21.64
2023-01-02T06:39:51.669Z,21.65
2023-01-02T06:42:18.382Z,21.66
2023-01-02T06:44:45.111Z,21.63
2023-01-02T06:47:11.875Z,21.64
2023-01-02T06:49:42.047Z,21.63
2023-01-02T06:52:12.117Z,21.59
2023-01-02T06:54:38.733Z,21.60
2023-01-02T06:57:05.492Z,21.57
2023-01-02T06:59:32.297Z,21.56
2023-01-02T07:02:02.315Z,21.58
2023-01-02T07:04:32.023Z,21.58
2023-01-02T07:07:02.448Z,21.55
2023-01-02T07:09:30.170Z,21.56
2023-01-02T07:11:57.202Z,21.56
2023-01-02T07:14:27.329Z,21.55
2023-01-02T07:16:57.567Z,21.55
2023-01-02T07:19:26.270Z,21.57
2023-01-02T07:21:53.541Z,21.56
2023-01-02T07:24:26.122Z,21.57
2023-01-02T07:26:52.909Z,21.59
2023-01-02T07:29:26.289Z,21.60
2023-01-02T07:31:52.988Z,21.61
2023-01-02T07:34:22.645Z,21.64
2023-01-02T07:36:52.182Z,21.60
2023-01-02T07:39:18.956Z,21.59
2023-01-02T07:41:48.300Z,21.58
2023-01-02T07:44:15.195Z,21.59
2023-01-02T07:46:41.918Z,21.56
2023-01-02T07:49:12.100Z,21.59
2023-01-02T07:51:41.832Z,21.53
2023-01-02T07:54:08.554Z,21.52
2023-01-02T07:56:37.868Z,21.50
2023-01-02T07:59:10.898Z,21.48
2023-01-02T08:01:40.665Z,21.50
2023-01-02T08:04:07.577Z,21.50
2023-01-02T08:06:34.351Z,21.49
2023-01-02T08:09:04.459Z,21.48
2023-01-02T08:11:34.165Z,21.47
2023-01-02T08:14:00.894Z,21.49
2023-01-02T08:16:27.652Z,21.50
2023-01-02T08:18:58.223Z,21.55
2023-01-02T08:21:26.416Z,21.58
2023-01-02T08:23:53.691Z,21.56
2023-01-02T08:26:20.708Z,21.60
2023-01-02T08:28:47.462Z,21.61
2023-01-02T08:31:20.323Z,21.62
2023-01-02T08:33:49.916Z,21.60
2023-01-02T08:36:19.470Z,21.62
2023-01-02T08:38:49.705Z,21.60
2023-01-02T08:41:31.102Z,21.54
2023-01-02T08:44:03.716Z,21.53
2023-01-02T08:46:42.390Z,21.53
2023-01-02T08:49:13.368Z,21.53
2023-01-02T08:51:40.657Z,21.60
2023-01-02T08:54:10.811Z,21.62
2023-01-02T08:56:37.540Z,21.63
2023-01-02T08:59:07.599Z,21.65
2023-01-02T09:01:35.467Z,21.66
2023-01-02T09:04:07.775Z,21.66
2023-01-02T09:06:37.551Z,21.69
2023-01-02T09:09:17.279Z,21.65
2023-01-02T09:11:50.592Z,21.67
2023-01-02T09:14:19.481Z,21.68
2023-01-02T09:16:46.995Z,21.69
2023-01-02T09:19:17.553Z,21.67
2023-01-02T09:21:47.580Z,21.68
2023-01-02T09:24:14.503Z,21.68
2023-01-02T09:26:41.493Z,21.68
2023-01-02T09:29:15.864Z,21.69
2023-01-02T09:31:44.973Z,21.69
2023-01-02T09:34:15.939Z,21.69
2023-01-02T09:36:46.104Z,21.69
2023-01-02T09:39:12.822Z,21.69
2023-01-02T09:41:50.271Z,21.69
2023-01-02T09:44:42.547Z,21.68
2023-01-02T09:47:18.374Z,21.65
2023-01-02T09:49:53.607Z,21.69
2023-01-02T09:52:30.331Z,21.70
2023-01-02T09:54:58.249Z,21.72
2023-01-02T09:57:28.067Z,21.71
2023-01-02T09:59:58.008Z,21.64
2023-01-02T10:02:39.773Z,21.70
2023-01-02T10:05:31.279Z,21.71
2023-01-02T10:08:32.793Z,21.73
2023-01-02T10:11:05.832Z,21.73
2023-01-02T10:14:16.741Z,21.75
2023-01-02T10:16:31.332Z,21.76
2023-01-02T10:19:02.039Z,21.73
2023-01-02T10:21:37.744Z,21.75
2023-01-02T10:24:31.676Z,21.74
2023-01-02T10:26:59.407Z,21.76
2023-01-02T10:29:55.246Z,21.80
2023-01-02T10:32:25.315Z,21.82
2023-01-02T10:35:07.375Z,21.86
2023-01-02T10:37:40.101Z,21.89
2023-01-02T10:40:11.476Z,21.93
2023-01-02T10:42:38.329Z,21.95
2023-01-02T10:45:07.725Z,21.98
2023-01-02T10:47:39.053Z,22.01
2023-01-02T10:50:08.549Z,22.03
2023-01-02T10:52:48.975Z,22.06
2023-01-02T10:55:34.227Z,22.06
2023-01-02T10:58:17.907Z,22.09
2023-01-02T11:00:44.763Z,22.11
2023-01-02T11:03:22.213Z,22.17
2023-01-02T11:05:59.309Z,22.18
2023-01-02T11:08:39.622Z,22.20
2023-01-02T11:11:19.317Z,22.22
2023-01-02T11:13:54.128Z,22.23
2023-01-02T11:16:23.577Z,22.23
2023-01-02T11:18:56.273Z,22.23
2023-01-02T11:21:40.430Z,22.23
2023-01-02T11:24:20.517Z,22.24
2023-01-02T11:26:50.349Z,22.25
2023-01-02T11:29:34.636Z,22.26
2023-01-02T11:32:06.130Z,22.26
2023-01-02T11:34:34.512Z,22.25
2023-01-02T11:37:17.314Z,22.25
2023-01-02T11:39:58.955Z,22.24
2023-01-02T11:42:53.059Z,22.24
2023-01-02T11:45:23.753Z,22.24
2023-01-02T11:48:00.358Z,22.25
2023-01-02T11:50:34.762Z,22.22
2023-01-02T11:53:13.772Z,22.23
2023-01-02T11:55:58.694Z,22.24
2023-01-02T11:59:07.812Z,22.22
2023-01-02T12:01:41.459Z,22.24
2023-01-02T12:04:13.535Z,22.22
2023-01-02T12:06:48.474Z,22.21
2023-01-02T12:09:45.101Z,22.22
2023-01-02T12:12:36.545Z,22.20
2023-01-02T12:15:45.547Z,22.19
2023-01-02T12:18:37.432Z,22.22
2023-01-02T12:21:20.118Z,22.23
2023-01-02T12:24:05.376Z,22.26
2023-01-02T12:26:57.974Z,22.26
2023-01-02T12:30:07.716Z,22.26
2023-01-02T12:32:50.605Z,22.29
2023-01-02T12:36:08.227Z,22.30
2023-01-02T12:38:46.960Z,22.31
2023-01-02T12:41:25.730Z,22.31
2023-01-02T12:44:12.416Z,22.31
2023-01-02T12:47:01.382Z,22.31
2023-01-02T12:50:14.133Z,22.30
2023-01-02T12:52:49.798Z,22.26
2023-01-02T12:55:28.551Z,22.25
2023-01-02T12:58:15.342Z,22.25
2023-01-02T13:00:49.487Z,22.23
2023-01-02T13:03:34.896Z,22.25
2023-01-02T13:06:07.541Z,22.25
2023-01-02T13:09:01.980Z,22.24
2023-01-02T13:11:54.792Z,22.25
2023-01-02T13:14:33.378Z,22.25
2023-01-02T13:17:27.845Z,22.24
2023-01-02T13:20:22.271Z,22.22
2023-01-02T13:23:10.208Z,22.22
2023-01-02T13:25:45.088Z,22.20
2023-01-02T13:28:18.122Z,22.17
2023-01-02T13:31:05.416Z,22.16
2023-01-02T13:33:40.044Z,22.16
2023-01-02T13:36:24.392Z,22.19
2023-01-02T13:39:05.572Z,22.18
2023-01-02T13:41:33.600Z,22.19
2023-01-02T13:44:06.381Z,22.16
2023-01-02T13:47:02.878Z,22.16
2023-01-02T13:49:27.187Z,22.19
2023-01-02T13:51:59.016Z,22.18
2023-01-02T13:54:37.495Z,22.19
2023-01-02T13:57:27.692Z,22.19
2023-01-02T14:00:25.089Z,22.17
2023-01-02T14:03:23.159Z,22.15
2023-01-02T14:06:02.344Z,22.17
2023-01-02T14:08:36.854Z,22.19
2023-01-02T14:11:06.473Z,22.20
2023-01-02T14:13:46.959Z,22.22
2023-01-02T14:16:18.257Z,22.24
2023-01-02T14:18:46.787Z,22.26
2023-01-02T14:21:19.076Z,22.28
2023-01-02T14:24:17.793Z,22.28
2023-01-02T14:26:43.451Z,22.31
2023-01-02T14:29:17.400Z,22.35
2023-01-02T14:31:47.034Z,22.35
2023-01-02T14:34:25.798Z,22.40
2023-01-02T14:36:56.789Z,22.42
2023-01-02T14:39:34.409Z,22.44
2023-01-02T14:42:11.324Z,22.44
2023-01-02T14:44:54.754Z,22.46
2023-01-02T14:47:36.724Z,22.47
2023-01-02T14:50:08.411Z,22.48
2023-01-02T14:52:39.851Z,22.51
2023-01-02T14:55:09.203Z,22.58
2023-01-02T14:57:39.707Z,22.59
2023-01-02T15:00:26.965Z,22.61
2023-01-02T15:03:32.068Z,22.61
2023-01-02T15:06:42.622Z,22.59
2023-01-02T15:09:21.727Z,22.61
2023-01-02T15:11:58.697Z,22.65
2023-01-02T15:14:25.969Z,22.61
2023-01-02T15:16:59.651Z,22.60
2023-01-02T15:19:29.708Z,22.56
2023-01-02T15:21:59.244Z,22.55
2023-01-02T15:24:30.503Z,22.54
2023-01-02T15:27:22.602Z,22.53
2023-01-02T15:29:51.633Z,22.53
2023-01-02T15:32:21.921Z,22.58
2023-01-02T15:34:51.896Z,22.60
2023-01-02T15:37:22.625Z,22.58
2023-01-02T15:39:53.722Z,22.53
2023-01-02T15:42:24.484Z,22.48
2023-01-02T15:44:51.643Z,22.48
2023-01-02T15:47:56.032Z,22.48
2023-01-02T15:50:31.856Z,22.47
2023-01-02T15:53:04.177Z,22.46
2023-01-02T15:55:39.252Z,22.36
2023-01-02T15:58:15.103Z,22.37
2023-01-02T16:00:46.156Z,22.39
2023-01-02T16:04:01.142Z,22.41
2023-01-02T16:06:32.403Z,22.36
2023-01-02T16:09:00.157Z,22.35
2023-01-02T16:11:30.664Z,22.32
2023-01-02T16:14:09.191Z,22.32
2023-01-02T16:17:00.402Z,22.30
2023-01-02T16:20:10.812Z,22.25
2023-01-02T16:22:57.108Z,22.21
2023-01-02T16:25:23.942Z,22.20
2023-01-02T16:27:59.526Z,22.17
2023-01-02T16:30:32.640Z,22.14
2023-01-02T16:33:24.524Z,22.11
2023-01-02T16:36:00.639Z,22.10
2023-01-02T16:38:31.409Z,22.08
2023-01-02T16:41:00.137Z,22.10
2023-01-02T16:43:29.781Z,22.08
2023-01-02T16:46:00.354Z,22.08
2023-01-02T16:48:29.447Z,22.06
2023-01-02T16:50:59.353Z,22.05
2023-01-02T16:53:30.339Z,22.03
2023-01-02T16:56:00.816Z,22.04
2023-01-02T16:58:27.681Z,22.04
2023-01-02T17:00:56.468Z,22.04
2023-01-02T17:03:29.608Z,22.04
2023-01-02T17:06:04.417Z,22.03
2023-01-02T17:08:32.281Z,22.04
2023-01-02T17:11:02.372Z,22.05
2023-01-02T17:13:29.977Z,22.06
2023-01-02T17:16:02.683Z,22.08
2023-01-02T17:18:29.562Z,22.07
2023-01-02T17:20:56.166Z,22.10
2023-01-02T17:23:23.023Z,22.09
2023-01-02T17:25:52.421Z,22.11
2023-01-02T17:28:19.733Z,22.12
2023-01-02T17:30:47.435Z,22.11
2023-01-02T17:33:24.861Z,22.11
2023-01-02T17:35:51.986Z,22.12
2023-01-02T17:38:19.304Z,22.13
2023-01-02T17:40:55.675Z,22.14
2023-01-02T17:43:22.382Z,22.14
2023-01-02T17:45:52.487Z,22.14
2023-01-02T17:48:24.161Z,22.13
2023-01-02T17:50:52.508Z,22.15
2023-01-02T17:53:41.540Z,22.15
2023-01-02T17:56:21.468Z,22.14
2023-01-02T17:58:52.803Z,22.14
2023-01-02T18:01:21.378Z,22.15
2023-01-02T18:03:49.121Z,22.15
2023-01-02T18:06:58.434Z,22.15
2023-01-02T18:12:53.811Z,22.13
2023-01-02T18:15:26.739Z,22.11
2023-01-02T18:20:52.346Z,22.06
2023-01-02T18:23:19.249Z,22.05
2023-01-02T18:32:24.116Z,21.96
2023-01-02T18:34:59.224Z,21.94
2023-01-02T18:40:51.460Z,21.91
2023-01-02T18:43:22.111Z,21.89
2023-01-02T18:49:39.672Z,21.87
2023-01-02T18:55:32.027Z,21.83
2023-01-02T18:58:38.994Z,21.80
2023-01-02T19:05:11.833Z,21.77
2023-01-02T19:07:39.433Z,21.74
2023-01-02T19:10:28.806Z,21.73
2023-01-02T19:13:06.464Z,21.71
2023-01-02T19:15:44.873Z,21.72
2023-01-02T19:21:53.172Z,21.70
2023-01-02T19:25:05.411Z,21.69
2023-01-02T19:27:39.472Z,21.69
2023-01-02T19:30:32.807Z,21.68
2023-01-02T19:32:59.790Z,21.66
2023-01-02T19:35:55.860Z,21.67
2023-01-02T19:51:26.298Z,21.75
2023-01-02T19:57:33.940Z,21.77
2023-01-02T20:25:56.643Z,21.99
2023-01-02T20:35:03.793Z,22.05
2023-01-02T20:37:51.997Z,22.03
2023-01-02T20:40:57.405Z,22.05
2023-01-02T20:43:27.123Z,22.09
2023-01-02T20:45:56.820Z,22.03
2023-01-02T20:48:46.601Z,22.02
2023-01-02T20:51:13.485Z,21.98
2023-01-02T20:57:13.080Z,21.95
2023-01-02T21:06:07.937Z,21.82
2023-01-02T21:08:55.747Z,21.80
2023-01-02T21:12:02.279Z,21.76
2023-01-02T21:14:37.729Z,21.74
2023-01-02T21:17:07.157Z,21.72
2023-01-02T21:20:14.054Z,21.69
2023-01-02T21:25:57.696Z,21.68
2023-01-02T21:34:51.003Z,21.62
2023-01-02T21:41:18.601Z,21.58
2023-01-02T21:43:47.454Z,21.56
2023-01-02T21:49:45.687Z,21.55
2023-01-02T21:52:36.862Z,21.55
2023-01-02T21:55:25.535Z,21.53
2023-01-02T21:58:13.778Z,21.53
2023-01-02T22:00:49.352Z,21.52
2023-01-02T22:03:22.509Z,21.52
2023-01-02T22:05:52.437Z,21.54
2023-01-02T22:08:19.271Z,21.54
2023-01-02T22:10:46.171Z,21.54
2023-01-02T22:13:16.663Z,21.53
2023-01-02T22:15:43.820Z,21.53
2023-01-02T22:18:13.741Z,21.53
2023-01-02T22:20:46.079Z,21.48
2023-01-02T22:23:12.795Z,21.48
2023-01-02T22:25:39.512Z,21.48
2023-01-02T22:28:06.146Z,21.43
2023-01-02T22:30:35.755Z,21.42
2023-01-02T22:33:02.671Z,21.45
2023-01-02T22:35:29.558Z,21.44
2023-01-02T22:38:04.262Z,21.45
2023-01-02T22:40:30.942Z,21.44
2023-01-02T22:43:05.417Z,21.43
2023-01-02T22:45:50.037Z,21.44
2023-01-02T22:48:23.621Z,21.43
2023-01-02T22:50:59.640Z,21.42
2023-01-02T22:53:32.656Z,21.43
2023-01-02T22:56:00.481Z,21.41
2023-01-02T22:58:27.194Z,21.44
2023-01-02T23:01:07.283Z,21.43
2023-01-02T23:03:40.375Z,21.40
2023-01-02T23:06:09.975Z,21.38
2023-01-02T23:08:41.295Z,21.36
2023-01-02T23:11:09.181Z,21.37
2023-01-02T23:13:40.501Z,21.36
2023-01-02T23:16:28.785Z,21.34
2023-01-02T23:19:00.474Z,21.33
2023-01-02T23:21:37.193Z,21.32
2023-01-02T23:24:05.414Z,21.31
2023-01-02T23:26:52.645Z,21.31
2023-01-02T23:29:24.159Z,21.31
2023-01-02T23:31:52.100Z,21.30
2023-01-02T23:34:21.624Z,21.30
2023-01-02T23:36:52.143Z,21.30
2023-01-02T23:39:21.757Z,21.31
2023-01-02T23:41:49.332Z,21.29
2023-01-02T23:44:17.168Z,21.28
2023-01-02T23:46:47.039Z,21.30
2023-01-02T23:49:20.051Z,21.28
2023-01-02T23:51:51.143Z,21.27
2023-01-02T23:54:18.422Z,21.29
2023-01-02T23:56:47.738Z,21.25
2023-01-02T23:59:24.924Z,21.26
